Time;durP1;ratioP1;P1;durP2;ratioP2;P2;SDS_P1;SDS_P2;PMS_P1;PMS_P2;Temp;Humidity;BMP_temperature;BMP_pressure;BME280_temperature;BME280_humidity;BME280_pressure;Samples;Min_cycle;Max_cycle;Signal;HPM_P1;HPM_P2
2022/07/28 00:01:09;;;;;;;;;;;15.10;96.60;;;;;;4995735;28;19929;-86
2022/07/28 00:03:38;;;;;;;;;;;15.10;96.80;;;;;;5010111;28;19953;-86
2022/07/28 00:06:11;;;;;;;;;;;15.00;96.50;;;;;;4994820;28;19979;-86
2022/07/28 00:08:52;;;;;;;;;;;15.10;96.80;;;;;;5001452;28;19980;-87
2022/07/28 00:11:27;;;;;;;;;;;15.10;97.00;;;;;;4997339;28;19952;-86
2022/07/28 00:14:03;;;;;;;;;;;15.10;97.50;;;;;;4994905;28;19940;-86
2022/07/28 00:16:49;;;;;;;;;;;15.10;97.30;;;;;;4991192;28;19926;-86
2022/07/28 00:19:23;;;;;;;;;;;15.10;97.30;;;;;;5000469;28;19984;-86
2022/07/28 00:22:14;;;;;;;;;;;15.10;97.30;;;;;;4987818;28;19968;-86
2022/07/28 00:27:55;;;;;;;;;;;15.10;97.50;;;;;;5004637;28;19961;-86
2022/07/28 00:33:51;;;;;;;;;;;15.00;97.60;;;;;;4988736;28;19930;-86
2022/07/28 00:36:27;;;;;;;;;;;15.00;97.70;;;;;;4996220;28;19932;-85
2022/07/28 00:39:14;;;;;;;;;;;15.00;97.80;;;;;;5003792;28;19953;-85
2022/07/28 00:42:09;;;;;;;;;;;14.90;97.80;;;;;;4988157;28;19937;-85
2022/07/28 00:44:45;;;;;;;;;;;14.90;97.90;;;;;;4978722;28;20390;-85
2022/07/28 00:47:18;;;;;;;;;;;14.90;98.10;;;;;;5002817;28;19940;-86
2022/07/28 00:49:49;;;;;;;;;;;14.90;98.10;;;;;;4996321;28;19925;-86
2022/07/28 00:52:24;;;;;;;;;;;14.90;98.10;;;;;;4994233;28;19930;-86
2022/07/28 00:54:58;;;;;;;;;;;14.90;98.20;;;;;;5015639;28;19925;-85
2022/07/28 00:57:34;;;;;;;;;;;14.90;98.40;;;;;;5000485;28;19984;-86
2022/07/28 01:00:10;;;;;;;;;;;14.80;98.60;;;;;;4995018;28;19925;-86
2022/07/28 01:02:41;;;;;;;;;;;14.80;98.60;;;;;;4996570;28;19936;-86
2022/07/28 01:05:13;;;;;;;;;;;14.80;98.70;;;;;;4998830;28;20053;-85
2022/07/28 01:07:47;;;;;;;;;;;14.80;98.80;;;;;;5001402;28;19929;-84
2022/07/28 01:10:23;;;;;;;;;;;14.80;98.90;;;;;;4995153;28;19925;-85
2022/07/28 01:12:56;;;;;;;;;;;14.80;98.90;;;;;;4981003;28;19929;-84
2022/07/28 01:15:52;;;;;;;;;;;14.80;99.10;;;;;;4991603;28;19949;-84
2022/07/28 01:18:25;;;;;;;;;;;14.80;99.20;;;;;;4963025;28;19961;-85
2022/07/28 01:21:22;;;;;;;;;;;14.70;99.40;;;;;;5015850;28;20023;-86
2022/07/28 01:24:19;;;;;;;;;;;14.70;99.60;;;;;;4995456;28;19957;-85
2022/07/28 01:27:14;;;;;;;;;;;14.70;99.60;;;;;;5003051;28;19929;-84
2022/07/28 01:30:09;;;;;;;;;;;14.70;99.60;;;;;;5003922;28;19925;-83
2022/07/28 01:32:46;;;;;;;;;;;14.70;99.70;;;;;;4988302;28;19940;-83
2022/07/28 01:35:25;;;;;;;;;;;14.60;99.60;;;;;;4995741;28;20420;-85
2022/07/28 01:38:11;;;;;;;;;;;14.60;99.70;;;;;;4993313;28;20415;-85
2022/07/28 01:40:49;;;;;;;;;;;14.60;99.80;;;;;;5013835;28;20024;-84
2022/07/28 01:43:22;;;;;;;;;;;14.50;99.80;;;;;;5002453;28;20526;-84
2022/07/28 01:45:51;;;;;;;;;;;14.40;99.90;;;;;;5005075;28;19961;-83
2022/07/28 01:48:31;;;;;;;;;;;14.40;99.90;;;;;;5015837;28;20382;-82
2022/07/28 01:54:02;;;;;;;;;;;14.20;99.90;;;;;;4987432;28;20103;-85
2022/07/28 01:56:33;;;;;;;;;;;14.20;99.90;;;;;;5019037;28;20553;-80
2022/07/28 01:59:05;;;;;;;;;;;14.10;99.90;;;;;;5015281;28;19925;-79
2022/07/28 02:01:46;;;;;;;;;;;14.10;99.90;;;;;;4977008;28;20445;-83
2022/07/28 02:04:31;;;;;;;;;;;14.00;99.90;;;;;;4985571;28;19987;-80
2022/07/28 02:07:00;;;;;;;;;;;14.10;99.90;;;;;;5011054;28;19929;-80
2022/07/28 02:09:27;;;;;;;;;;;14.00;99.90;;;;;;4993985;28;20420;-79
2022/07/28 02:11:55;;;;;;;;;;;13.90;99.90;;;;;;5004496;28;20423;-79
2022/07/28 02:14:24;;;;;;;;;;;13.90;99.90;;;;;;5004664;28;19926;-84
2022/07/28 02:16:52;;;;;;;;;;;13.90;99.90;;;;;;5029093;28;20010;-82
2022/07/28 02:19:21;;;;;;;;;;;13.80;99.90;;;;;;5019157;28;20333;-83
2022/07/28 02:21:52;;;;;;;;;;;13.80;99.90;;;;;;5023444;28;20017;-84
2022/07/28 02:24:25;;;;;;;;;;;13.80;99.90;;;;;;4993349;28;19930;-80
2022/07/28 02:27:00;;;;;;;;;;;13.80;99.90;;;;;;5019783;28;19953;-81
2022/07/28 02:29:29;;;;;;;;;;;13.70;99.90;;;;;;5024628;28;19956;-81
2022/07/28 02:32:04;;;;;;;;;;;13.70;99.90;;;;;;5000673;28;19929;-82
2022/07/28 02:34:36;;;;;;;;;;;13.70;99.90;;;;;;4999501;28;20269;-85
2022/07/28 02:37:07;;;;;;;;;;;13.70;99.90;;;;;;4989209;28;19937;-84
2022/07/28 02:39:41;;;;;;;;;;;13.70;99.90;;;;;;5017089;28;19930;-80
2022/07/28 02:45:18;;;;;;;;;;;13.70;99.90;;;;;;5009149;28;19983;-80
2022/07/28 02:47:57;;;;;;;;;;;13.60;99.90;;;;;;5023100;28;19976;-85
2022/07/28 02:50:28;;;;;;;;;;;13.60;99.90;;;;;;5018784;28;19936;-82
2022/07/28 02:52:58;;;;;;;;;;;13.60;99.90;;;;;;5008003;28;19929;-81
2022/07/28 02:55:28;;;;;;;;;;;13.60;99.90;;;;;;5023398;28;19930;-81
2022/07/28 02:58:00;;;;;;;;;;;13.50;99.90;;;;;;5023411;28;19948;-81
2022/07/28 03:00:31;;;;;;;;;;;14.30;99.90;;;;;;5010352;28;19960;-82
2022/07/28 03:03:02;;;;;;;;;;;13.50;99.90;;;;;;5025054;28;19925;-81
2022/07/28 03:05:35;;;;;;;;;;;13.50;99.90;;;;;;5006953;28;19930;-81
2022/07/28 03:08:08;;;;;;;;;;;13.50;99.90;;;;;;5012924;28;19928;-80
2022/07/28 03:10:40;;;;;;;;;;;13.50;99.90;;;;;;5014301;28;19929;-81
2022/07/28 03:13:11;;;;;;;;;;;15.90;99.90;;;;;;5003806;28;19953;-81
2022/07/28 03:15:42;;;;;;;;;;;13.40;99.90;;;;;;5015371;28;19925;-81
2022/07/28 03:18:15;;;;;;;;;;;13.40;99.90;;;;;;5006650;28;19930;-81
2022/07/28 03:20:52;;;;;;;;;;;13.40;99.90;;;;;;5016975;28;19925;-81
2022/07/28 03:23:33;;;;;;;;;;;13.30;99.90;;;;;;5009496;28;19964;-81
2022/07/28 03:26:04;;;;;;;;;;;13.30;99.90;;;;;;5015632;28;19944;-80
2022/07/28 03:28:34;;;;;;;;;;;13.20;99.90;;;;;;5006471;28;19929;-80
2022/07/28 03:31:09;;;;;;;;;;;13.20;99.90;;;;;;5004370;28;19929;-80
2022/07/28 03:33:40;;;;;;;;;;;13.20;99.90;;;;;;5006108;28;19990;-80
2022/07/28 03:36:17;;;;;;;;;;;13.20;99.90;;;;;;4998411;28;19936;-80
2022/07/28 03:38:47;;;;;;;;;;;13.10;99.90;;;;;;5002020;28;19952;-80
2022/07/28 03:41:18;;;;;;;;;;;13.10;99.90;;;;;;5008966;28;20000;-80
2022/07/28 03:43:46;;;;;;;;;;;13.10;99.90;;;;;;5001461;28;19953;-80
2022/07/28 03:46:16;;;;;;;;;;;13.10;99.90;;;;;;5014585;28;19939;-81
2022/07/28 03:48:46;;;;;;;;;;;13.10;99.90;;;;;;5002991;28;19933;-82
2022/07/28 03:51:15;;;;;;;;;;;13.10;99.90;;;;;;5017693;28;19953;-81
2022/07/28 03:53:43;;;;;;;;;;;13.00;99.90;;;;;;4989042;28;20020;-82
2022/07/28 03:56:10;;;;;;;;;;;13.00;99.90;;;;;;5007319;28;19925;-81
2022/07/28 03:58:38;;;;;;;;;;;13.00;99.90;;;;;;5004815;28;19968;-82
2022/07/28 04:01:04;;;;;;;;;;;13.00;99.90;;;;;;4995766;28;19937;-81
2022/07/28 04:03:31;;;;;;;;;;;12.90;99.90;;;;;;5007324;28;19926;-82
2022/07/28 04:05:58;;;;;;;;;;;12.90;99.90;;;;;;5031785;28;19984;-82
2022/07/28 04:08:26;;;;;;;;;;;12.90;99.90;;;;;;4997754;28;19926;-80
2022/07/28 04:10:53;;;;;;;;;;;12.90;99.90;;;;;;5014147;28;19940;-81
2022/07/28 04:13:25;;;;;;;;;;;13.00;99.90;;;;;;5017722;28;20488;-82
2022/07/28 04:15:52;;;;;;;;;;;12.90;99.90;;;;;;4997512;28;19964;-84
2022/07/28 04:18:19;;;;;;;;;;;13.00;99.90;;;;;;4997380;28;19967;-85
2022/07/28 04:20:46;;;;;;;;;;;13.00;99.90;;;;;;4999307;28;19925;-85
2022/07/28 04:23:19;;;;;;;;;;;13.00;99.90;;;;;;5008814;28;19953;-86
2022/07/28 04:28:41;;;;;;;;;;;13.10;99.90;;;;;;5017865;28;20408;-82
2022/07/28 04:31:16;;;;;;;;;;;13.10;99.90;;;;;;5047289;28;19917;-80
2022/07/28 04:33:49;;;;;;;;;;;13.20;99.90;;;;;;5033037;28;19925;-83
2022/07/28 04:36:40;;;;;;;;;;;13.30;99.90;;;;;;5005931;28;20393;-81
2022/07/28 04:39:16;;;;;;;;;;;13.30;99.90;;;;;;5015203;28;19936;-82
2022/07/28 04:42:04;;;;;;;;;;;13.30;99.90;;;;;;5017359;28;20552;-82
2022/07/28 04:44:46;;;;;;;;;;;13.30;99.90;;;;;;5023123;28;20297;-82
2022/07/28 04:47:24;;;;;;;;;;;13.40;99.90;;;;;;5016427;28;20390;-82
2022/07/28 04:49:59;;;;;;;;;;;13.40;99.90;;;;;;5017032;28;19929;-81
2022/07/28 04:52:32;;;;;;;;;;;13.50;99.90;;;;;;5015349;28;19917;-80
2022/07/28 04:55:07;;;;;;;;;;;13.60;99.90;;;;;;5010726;28;19925;-80
2022/07/28 04:57:40;;;;;;;;;;;13.60;99.90;;;;;;5039139;28;19994;-80
2022/07/28 05:00:13;;;;;;;;;;;13.70;99.90;;;;;;5016685;28;19926;-80
2022/07/28 05:02:53;;;;;;;;;;;13.70;99.90;;;;;;5009489;28;20340;-80
2022/07/28 05:05:26;;;;;;;;;;;13.90;99.90;;;;;;5009594;28;19921;-79
2022/07/28 05:08:08;;;;;;;;;;;13.90;99.90;;;;;;5035170;28;19936;-79
2022/07/28 05:10:46;;;;;;;;;;;14.00;99.90;;;;;;5008933;28;20005;-81
2022/07/28 05:15:45;;;;;;;;;;;14.10;99.90;;;;;;4983262;28;20299;-75
2022/07/28 05:18:12;;;;;;;;;;;14.30;99.90;;;;;;4997836;28;19942;-75
2022/07/28 05:20:39;;;;;;;;;;;14.40;99.90;;;;;;5003909;28;20505;-75
2022/07/28 05:23:11;;;;;;;;;;;14.50;99.90;;;;;;4992425;28;19961;-74
2022/07/28 05:25:39;;;;;;;;;;;14.70;99.90;;;;;;4999021;28;19926;-73
2022/07/28 05:28:05;;;;;;;;;;;15.60;99.90;;;;;;4987295;28;19930;-74
2022/07/28 05:30:32;;;;;;;;;;;15.10;99.90;;;;;;4975421;28;20280;-74
2022/07/28 05:33:00;;;;;;;;;;;15.40;99.90;;;;;;4969252;28;19933;-74
2022/07/28 05:35:27;;;;;;;;;;;15.70;99.90;;;;;;4978269;28;19926;-74
2022/07/28 05:37:54;;;;;;;;;;;15.90;99.90;;;;;;4979392;28;19941;-75
2022/07/28 05:40:20;;;;;;;;;;;16.20;99.90;;;;;;4976514;28;19930;-74
2022/07/28 05:42:47;;;;;;;;;;;16.50;99.90;;;;;;4981335;28;19988;-74
2022/07/28 05:45:14;;;;;;;;;;;16.90;99.90;;;;;;4983240;28;19937;-75
2022/07/28 05:47:42;;;;;;;;;;;17.70;99.90;;;;;;4972590;28;19930;-75
2022/07/28 05:50:10;;;;;;;;;;;18.60;99.90;;;;;;4975365;28;20479;-76
2022/07/28 05:52:37;;;;;;;;;;;19.60;99.90;;;;;;4973208;28;20446;-76
2022/07/28 05:55:04;;;;;;;;;;;20.30;99.90;;;;;;4972232;28;19937;-76
2022/07/28 05:57:31;;;;;;;;;;;21.20;99.90;;;;;;4975652;28;20090;-76
2022/07/28 05:59:58;;;;;;;;;;;22.00;99.90;;;;;;4975279;28;20429;-76
2022/07/28 06:02:24;;;;;;;;;;;23.00;99.90;;;;;;4981174;28;20310;-76
2022/07/28 06:04:51;;;;;;;;;;;24.30;99.90;;;;;;4977030;28;19933;-76
2022/07/28 06:07:19;;;;;;;;;;;24.80;99.90;;;;;;4974264;28;19979;-77
2022/07/28 06:09:46;;;;;;;;;;;24.50;99.90;;;;;;4983271;28;19930;-77
2022/07/28 06:12:13;;;;;;;;;;;23.90;99.90;;;;;;4977565;28;19937;-77
2022/07/28 06:14:39;;;;;;;;;;;23.50;99.90;;;;;;4974293;28;19927;-76
2022/07/28 06:17:06;;;;;;;;;;;23.40;99.90;;;;;;4957012;28;20340;-76
2022/07/28 06:19:33;;;;;;;;;;;23.20;99.50;;;;;;4982016;28;19952;-76
2022/07/28 06:21:59;;;;;;;;;;;22.90;98.60;;;;;;4971484;28;19925;-76
2022/07/28 06:24:28;;;;;;;;;;;23.20;99.60;;;;;;4975451;28;19930;-76
2022/07/28 06:26:55;;;;;;;;;;;23.20;99.60;;;;;;4976042;28;19930;-77
2022/07/28 06:29:23;;;;;;;;;;;22.90;98.20;;;;;;4961640;28;19933;-76
2022/07/28 06:31:50;;;;;;;;;;;22.60;98.00;;;;;;4976579;28;19937;-75
2022/07/28 06:34:16;;;;;;;;;;;22.50;98.90;;;;;;4973848;28;19930;-76
2022/07/28 06:36:43;;;;;;;;;;;22.40;99.10;;;;;;4975389;28;19957;-76
2022/07/28 06:39:10;;;;;;;;;;;22.10;98.90;;;;;;4973282;28;19926;-76
2022/07/28 06:41:40;;;;;;;;;;;22.00;98.60;;;;;;4979129;28;19941;-76
2022/07/28 06:44:08;;;;;;;;;;;22.20;99.30;;;;;;4970731;28;19926;-77
2022/07/28 06:46:34;;;;;;;;;;;22.70;99.90;;;;;;4983685;28;20115;-77
2022/07/28 06:49:01;;;;;;;;;;;23.20;98.80;;;;;;4980621;28;20333;-76
2022/07/28 06:51:28;;;;;;;;;;;24.00;99.40;;;;;;4965353;28;19937;-76
2022/07/28 06:53:54;;;;;;;;;;;24.70;99.10;;;;;;4976641;28;19930;-77
2022/07/28 06:56:21;;;;;;;;;;;24.70;96.80;;;;;;4975715;28;19930;-76
2022/07/28 06:58:49;;;;;;;;;;;24.10;94.90;;;;;;4969752;28;20021;-77
2022/07/28 07:01:16;;;;;;;;;;;23.60;96.00;;;;;;5524203;23;19925;-76
2022/07/28 07:03:43;;;;;;;;;;;23.70;96.50;;;;;;5025256;28;20016;-76
2022/07/28 07:06:10;;;;;;;;;;;24.60;96.40;;;;;;5035238;28;20246;-77
2022/07/28 07:08:36;;;;;;;;;;;25.80;95.50;;;;;;5036331;28;20378;-76
2022/07/28 07:11:03;;;;;;;;;;;26.50;93.80;;;;;;5031238;28;19930;-76
2022/07/28 07:13:31;;;;;;;;;;;26.90;93.50;;;;;;5028354;28;20016;-77
2022/07/28 07:15:59;;;;;;;;;;;27.60;91.50;;;;;;5018378;28;19991;-77
2022/07/28 07:18:25;;;;;;;;;;;27.60;91.20;;;;;;5021329;28;19934;-76
2022/07/28 07:20:53;;;;;;;;;;;28.00;91.00;;;;;;5013890;28;20378;-76
2022/07/28 07:23:20;;;;;;;;;;;28.10;90.30;;;;;;5022461;28;20043;-76
2022/07/28 07:25:46;;;;;;;;;;;28.40;90.00;;;;;;5019399;28;20011;-76
2022/07/28 07:28:13;;;;;;;;;;;29.30;89.00;;;;;;5007714;28;20288;-76
2022/07/28 07:30:40;;;;;;;;;;;29.70;84.40;;;;;;5015875;28;19995;-76
2022/07/28 07:33:08;;;;;;;;;;;29.70;82.30;;;;;;5021129;28;19926;-77
2022/07/28 07:35:36;;;;;;;;;;;29.40;82.50;;;;;;5017664;28;19933;-76
2022/07/28 07:38:03;;;;;;;;;;;29.50;83.20;;;;;;5017486;28;19933;-76
2022/07/28 07:40:30;;;;;;;;;;;29.40;79.60;;;;;;5018594;28;19960;-76
2022/07/28 07:42:56;;;;;;;;;;;28.80;79.00;;;;;;5018020;28;20299;-77
2022/07/28 07:45:23;;;;;;;;;;;28.30;79.00;;;;;;5016978;28;19960;-76
2022/07/28 07:47:50;;;;;;;;;;;27.50;79.90;;;;;;5020255;28;19936;-76
2022/07/28 07:50:19;;;;;;;;;;;26.80;81.30;;;;;;5018470;28;20012;-76
2022/07/28 07:52:48;;;;;;;;;;;26.70;82.20;;;;;;5019661;28;19932;-76
2022/07/28 07:55:15;;;;;;;;;;;26.50;83.80;;;;;;5022125;28;20003;-76
2022/07/28 07:57:42;;;;;;;;;;;26.60;83.60;;;;;;5013842;28;19930;-76
2022/07/28 08:00:09;;;;;;;;;;;27.00;84.60;;;;;;5019284;28;20492;-76
2022/07/28 08:02:38;;;;;;;;;;;27.30;82.80;;;;;;5013030;28;20304;-76
2022/07/28 08:05:05;;;;;;;;;;;27.90;82.20;;;;;;5014588;28;19929;-76
2022/07/28 08:07:33;;;;;;;;;;;28.40;81.10;;;;;;5022275;28;19933;-76
2022/07/28 08:10:00;;;;;;;;;;;28.70;80.00;;;;;;5010560;28;19925;-76
2022/07/28 08:12:27;;;;;;;;;;;28.80;78.60;;;;;;5019180;28;19936;-76
2022/07/28 08:14:53;;;;;;;;;;;29.10;78.30;;;;;;5016439;28;20016;-76
2022/07/28 08:17:20;;;;;;;;;;;29.30;76.70;;;;;;5002606;28;19933;-77
2022/07/28 08:19:47;;;;;;;;;;;29.10;75.80;;;;;;5018512;28;20362;-76
2022/07/28 08:22:14;;;;;;;;;;;29.10;76.00;;;;;;5026213;28;20306;-76
2022/07/28 08:24:42;;;;;;;;;;;29.40;77.80;;;;;;5014713;28;19929;-76
2022/07/28 08:27:09;;;;;;;;;;;29.30;74.60;;;;;;5015333;28;19936;-77
2022/07/28 08:29:36;;;;;;;;;;;28.60;74.20;;;;;;5015225;28;19925;-76
2022/07/28 08:32:03;;;;;;;;;;;28.00;75.10;;;;;;5018755;28;19993;-77
2022/07/28 08:34:29;;;;;;;;;;;27.80;75.10;;;;;;5017602;28;19964;-76
2022/07/28 08:36:56;;;;;;;;;;;27.70;75.80;;;;;;5020242;28;19940;-76
2022/07/28 08:39:23;;;;;;;;;;;27.60;76.00;;;;;;5018525;28;19936;-77
2022/07/28 08:41:54;;;;;;;;;;;27.80;76.00;;;;;;5011395;28;19940;-76
2022/07/28 08:44:22;;;;;;;;;;;28.20;75.10;;;;;;5014898;28;19948;-76
2022/07/28 08:46:49;;;;;;;;;;;28.30;73.90;;;;;;5016890;28;19938;-76
2022/07/28 08:49:16;;;;;;;;;;;28.30;74.10;;;;;;5012419;28;19925;-76
2022/07/28 08:51:43;;;;;;;;;;;27.90;74.20;;;;;;5011988;28;20522;-76
2022/07/28 08:54:12;;;;;;;;;;;27.80;75.70;;;;;;5014181;28;19930;-76
2022/07/28 08:56:40;;;;;;;;;;;28.40;77.10;;;;;;5017744;28;19940;-77
2022/07/28 08:59:08;;;;;;;;;;;28.70;74.10;;;;;;5019323;28;20034;-76
2022/07/28 09:01:36;;;;;;;;;;;28.50;74.00;;;;;;5021607;28;20202;-76
2022/07/28 09:04:03;;;;;;;;;;;28.30;73.30;;;;;;5015799;28;20217;-76
2022/07/28 09:06:30;;;;;;;;;;;28.30;74.80;;;;;;5024855;28;19933;-74
2022/07/28 09:08:57;;;;;;;;;;;28.30;74.00;;;;;;5018570;28;19960;-75
2022/07/28 09:11:23;;;;;;;;;;;28.30;72.60;;;;;;5020153;28;19937;-75
2022/07/28 09:13:50;;;;;;;;;;;28.40;72.90;;;;;;5019419;28;19938;-76
2022/07/28 09:16:18;;;;;;;;;;;28.40;70.50;;;;;;5018789;28;20794;-76
2022/07/28 09:18:45;;;;;;;;;;;28.10;72.10;;;;;;5019213;28;19933;-75
2022/07/28 09:21:13;;;;;;;;;;;27.90;72.10;;;;;;5021949;28;19936;-74
2022/07/28 09:23:43;;;;;;;;;;;27.70;73.00;;;;;;5016631;28;19933;-75
2022/07/28 09:26:10;;;;;;;;;;;27.70;72.70;;;;;;5017931;28;20032;-74
2022/07/28 09:28:45;;;;;;;;;;;27.70;71.90;;;;;;5007835;28;19944;-75
2022/07/28 09:31:12;;;;;;;;;;;27.30;72.60;;;;;;5013069;28;19929;-75
2022/07/28 09:33:52;;;;;;;;;;;26.80;72.80;;;;;;5017670;28;19929;-75
2022/07/28 09:36:18;;;;;;;;;;;26.30;73.90;;;;;;5004698;28;20652;-75
2022/07/28 09:38:45;;;;;;;;;;;26.20;75.80;;;;;;5010378;28;20534;-75
2022/07/28 09:41:12;;;;;;;;;;;26.20;75.30;;;;;;5018192;28;19987;-75
2022/07/28 09:43:40;;;;;;;;;;;26.30;74.80;;;;;;5015091;28;19929;-74
2022/07/28 09:46:08;;;;;;;;;;;26.50;73.70;;;;;;4995789;28;19929;-75
2022/07/28 09:48:35;;;;;;;;;;;26.40;74.40;;;;;;5019819;28;19936;-75
2022/07/28 09:51:13;;;;;;;;;;;26.30;74.30;;;;;;5015322;28;19934;-75
2022/07/28 09:53:40;;;;;;;;;;;26.10;75.30;;;;;;5009483;28;19925;-75
2022/07/28 09:56:07;;;;;;;;;;;26.00;75.30;;;;;;5015007;28;19936;-74
2022/07/28 09:58:34;;;;;;;;;;;26.00;75.70;;;;;;5019510;28;19925;-75
2022/07/28 10:01:05;;;;;;;;;;;25.80;74.60;;;;;;5017144;28;19933;-74
2022/07/28 10:03:31;;;;;;;;;;;25.40;75.10;;;;;;5015105;28;19925;-74
2022/07/28 10:06:03;;;;;;;;;;;24.90;75.60;;;;;;5012259;28;19936;-74
2022/07/28 10:08:51;;;;;;;;;;;24.60;76.70;;;;;;5014688;28;19933;-75
2022/07/28 10:11:23;;;;;;;;;;;24.30;77.00;;;;;;5528138;22;19949;-74
2022/07/28 10:13:51;;;;;;;;;;;23.90;78.20;;;;;;5003948;28;19983;-74
2022/07/28 10:16:18;;;;;;;;;;;23.60;78.90;;;;;;5000574;28;19929;-74
2022/07/28 10:18:46;;;;;;;;;;;23.40;78.20;;;;;;5001416;28;20055;-74
2022/07/28 10:21:14;;;;;;;;;;;23.30;78.20;;;;;;5005722;28;20302;-74
2022/07/28 10:23:44;;;;;;;;;;;23.20;79.00;;;;;;5005096;28;19937;-75
2022/07/28 10:26:11;;;;;;;;;;;23.10;79.10;;;;;;5038507;23;19931;-81
2022/07/28 10:28:43;;;;;;;;;;;23.00;79.60;;;;;;5016051;28;19929;-80
2022/07/28 10:31:10;;;;;;;;;;;23.10;80.20;;;;;;5005225;28;19937;-79
2022/07/28 10:33:39;;;;;;;;;;;23.10;80.00;;;;;;4994969;28;19929;-77
2022/07/28 10:36:29;;;;;;;;;;;23.10;80.20;;;;;;5003757;28;19925;-80
2022/07/28 10:39:00;;;;;;;;;;;23.20;80.70;;;;;;4998293;28;19971;-79
2022/07/28 10:41:29;;;;;;;;;;;23.30;80.70;;;;;;4990196;28;19949;-78
2022/07/28 10:43:57;;;;;;;;;;;23.40;80.60;;;;;;4986455;28;19994;-78
2022/07/28 10:46:24;;;;;;;;;;;23.50;80.90;;;;;;4988930;28;20349;-79
2022/07/28 10:48:52;;;;;;;;;;;23.60;81.60;;;;;;4990382;28;19934;-78
2022/07/28 10:51:20;;;;;;;;;;;23.60;79.50;;;;;;5011026;28;19925;-78
2022/07/28 10:53:51;;;;;;;;;;;23.70;79.00;;;;;;4998858;28;19987;-78
2022/07/28 10:56:21;;;;;;;;;;;23.70;78.60;;;;;;5003186;28;19926;-79
2022/07/28 10:58:50;;;;;;;;;;;23.80;78.40;;;;;;5010803;28;19937;-78
2022/07/28 11:01:44;;;;;;;;;;;23.80;78.20;;;;;;4998634;28;19988;-78
2022/07/28 11:04:36;;;;;;;;;;;24.00;79.00;;;;;;4958713;28;20463;-79
2022/07/28 11:07:12;;;;;;;;;;;24.00;78.00;;;;;;5022389;28;19983;-79
2022/07/28 11:09:43;;;;;;;;;;;24.00;78.30;;;;;;5005603;28;20374;-80
2022/07/28 11:12:13;;;;;;;;;;;24.00;77.80;;;;;;4998145;28;19930;-80
2022/07/28 11:14:41;;;;;;;;;;;24.00;77.50;;;;;;5001958;28;19960;-80
2022/07/28 11:17:21;;;;;;;;;;;24.00;78.10;;;;;;4986234;28;19929;-81
2022/07/28 11:20:05;;;;;;;;;;;24.10;77.80;;;;;;5004848;28;19930;-82
2022/07/28 11:22:34;;;;;;;;;;;24.20;77.60;;;;;;4993782;28;20018;-80
2022/07/28 11:25:10;;;;;;;;;;;24.30;77.10;;;;;;5008228;28;19995;-80
2022/07/28 11:27:56;;;;;;;;;;;24.40;77.50;;;;;;4996330;28;19970;-81
2022/07/28 11:30:42;;;;;;;;;;;24.40;77.50;;;;;;4996443;28;19925;-80
2022/07/28 11:33:09;;;;;;;;;;;24.50;76.30;;;;;;4998364;28;19925;-80
2022/07/28 11:35:53;;;;;;;;;;;24.60;76.00;;;;;;4997178;28;19930;-83
2022/07/28 11:38:22;;;;;;;;;;;24.50;76.10;;;;;;4997341;28;19930;-81
2022/07/28 11:40:50;;;;;;;;;;;24.60;76.10;;;;;;5007987;28;19932;-80
2022/07/28 11:43:28;;;;;;;;;;;24.70;75.90;;;;;;5014990;28;19984;-81
2022/07/28 11:46:14;;;;;;;;;;;24.70;76.50;;;;;;5006899;28;19929;-80
2022/07/28 11:48:43;;;;;;;;;;;24.80;76.70;;;;;;4983345;28;19930;-80
2022/07/28 11:51:10;;;;;;;;;;;24.80;76.10;;;;;;4997476;28;20023;-81
2022/07/28 11:53:39;;;;;;;;;;;24.90;76.10;;;;;;5018415;28;19956;-81
2022/07/28 11:56:08;;;;;;;;;;;25.10;75.20;;;;;;5007725;28;19929;-80
2022/07/28 11:58:35;;;;;;;;;;;25.10;75.30;;;;;;5017336;28;19930;-79
2022/07/28 12:01:12;;;;;;;;;;;25.20;75.40;;;;;;4989370;28;19952;-80
2022/07/28 12:03:40;;;;;;;;;;;25.30;74.10;;;;;;4984883;28;19930;-79
2022/07/28 12:06:09;;;;;;;;;;;25.50;74.80;;;;;;4984717;28;20401;-79
2022/07/28 12:08:51;;;;;;;;;;;25.60;73.80;;;;;;5005531;28;19929;-80
2022/07/28 12:11:18;;;;;;;;;;;25.60;73.70;;;;;;4985065;28;20370;-80
2022/07/28 12:13:45;;;;;;;;;;;25.70;73.80;;;;;;4986512;28;20625;-81
2022/07/28 12:16:12;;;;;;;;;;;25.70;74.20;;;;;;5011067;28;19993;-81
2022/07/28 12:18:43;;;;;;;;;;;25.80;73.90;;;;;;4999108;28;20412;-82
2022/07/28 12:21:10;;;;;;;;;;;25.80;74.40;;;;;;4985771;28;19926;-80
2022/07/28 12:23:37;;;;;;;;;;;26.00;74.40;;;;;;4984932;28;19940;-83
2022/07/28 12:26:05;;;;;;;;;;;26.20;74.40;;;;;;4988754;28;19926;-79
2022/07/28 12:28:32;;;;;;;;;;;26.40;73.20;;;;;;5004785;28;19965;-80
2022/07/28 12:31:09;;;;;;;;;;;26.50;73.10;;;;;;4988937;28;20492;-80
2022/07/28 12:33:36;;;;;;;;;;;26.50;72.90;;;;;;5010739;28;20073;-81
2022/07/28 12:36:04;;;;;;;;;;;26.60;73.10;;;;;;4999481;28;19926;-81
2022/07/28 12:38:31;;;;;;;;;;;26.70;73.00;;;;;;4990049;28;20479;-82
2022/07/28 12:40:59;;;;;;;;;;;26.90;73.20;;;;;;4983459;28;19926;-78
2022/07/28 12:43:29;;;;;;;;;;;27.10;71.90;;;;;;5001216;28;19925;-79
2022/07/28 12:45:56;;;;;;;;;;;27.10;71.10;;;;;;4997979;28;19930;-79
2022/07/28 12:48:23;;;;;;;;;;;27.20;71.90;;;;;;5022115;28;19924;-81
2022/07/28 12:50:51;;;;;;;;;;;27.40;71.40;;;;;;5009137;28;19930;-81
2022/07/28 12:53:21;;;;;;;;;;;27.50;70.00;;;;;;4995308;28;19929;-82
2022/07/28 12:55:48;;;;;;;;;;;27.50;69.50;;;;;;4990043;28;19961;-82
2022/07/28 12:58:23;;;;;;;;;;;27.50;69.30;;;;;;5005029;28;19930;-83
2022/07/28 13:00:52;;;;;;;;;;;27.40;69.90;;;;;;4990670;28;20427;-82
2022/07/28 13:03:23;;;;;;;;;;;27.40;70.30;;;;;;4993534;28;19934;-83
2022/07/28 13:06:02;;;;;;;;;;;27.30;69.10;;;;;;5001243;28;19930;-82
2022/07/28 13:08:37;;;;;;;;;;;27.20;69.30;;;;;;5000514;28;20324;-81
2022/07/28 13:11:12;;;;;;;;;;;27.30;69.70;;;;;;5000472;28;19929;-82
2022/07/28 13:13:50;;;;;;;;;;;27.30;69.90;;;;;;5014324;28;19953;-84
2022/07/28 13:16:21;;;;;;;;;;;27.30;69.10;;;;;;5021521;28;19964;-81
2022/07/28 13:18:52;;;;;;;;;;;27.30;69.60;;;;;;5026068;28;19948;-79
2022/07/28 13:21:35;;;;;;;;;;;27.30;70.00;;;;;;5007635;28;19930;-79
2022/07/28 13:24:02;;;;;;;;;;;27.20;69.70;;;;;;5010214;28;19925;-80
2022/07/28 13:26:33;;;;;;;;;;;27.00;69.90;;;;;;5028845;28;19913;-80
2022/07/28 13:29:03;;;;;;;;;;;26.80;70.50;;;;;;5012601;28;19933;-79
2022/07/28 13:31:36;;;;;;;;;;;26.80;71.00;;;;;;5011837;28;19955;-78
2022/07/28 13:34:04;;;;;;;;;;;26.80;71.60;;;;;;5008058;28;19929;-79
2022/07/28 13:36:32;;;;;;;;;;;26.80;70.60;;;;;;5012315;28;19925;-79
2022/07/28 13:39:00;;;;;;;;;;;26.80;70.80;;;;;;4989802;28;19926;-80
2022/07/28 13:41:34;;;;;;;;;;;26.80;70.60;;;;;;5007058;28;19933;-85
2022/07/28 13:44:04;;;;;;;;;;;26.80;70.90;;;;;;5015587;28;19925;-85
2022/07/28 13:46:32;;;;;;;;;;;27.00;71.20;;;;;;5011685;28;19933;-86
2022/07/28 13:49:03;;;;;;;;;;;27.20;70.20;;;;;;5011368;28;19925;-86
2022/07/28 13:51:35;;;;;;;;;;;27.10;69.40;;;;;;5020386;28;19980;-85
2022/07/28 13:54:05;;;;;;;;;;;27.10;69.80;;;;;;5025682;28;19922;-85
2022/07/28 13:56:32;;;;;;;;;;;27.20;70.10;;;;;;4989729;28;19926;-82
2022/07/28 13:59:02;;;;;;;;;;;27.40;70.30;;;;;;4991653;28;19933;-86
2022/07/28 14:01:29;;;;;;;;;;;27.70;70.20;;;;;;4991535;28;20000;-84
2022/07/28 14:03:56;;;;;;;;;;;27.90;68.90;;;;;;5001531;28;19930;-82
2022/07/28 14:06:24;;;;;;;;;;;27.90;68.70;;;;;;5010350;28;19933;-82
2022/07/28 14:08:51;;;;;;;;;;;28.20;67.30;;;;;;4997492;28;20153;-84
2022/07/28 14:11:18;;;;;;;;;;;28.00;68.40;;;;;;5012028;28;19972;-83
2022/07/28 14:13:45;;;;;;;;;;;28.20;68.40;;;;;;4994715;28;19929;-84
2022/07/28 14:16:13;;;;;;;;;;;28.10;68.40;;;;;;5015945;28;19925;-82
2022/07/28 14:18:40;;;;;;;;;;;28.30;67.90;;;;;;4990811;28;19926;-81
2022/07/28 14:21:08;;;;;;;;;;;28.30;67.90;;;;;;4995016;28;19934;-81
2022/07/28 14:23:36;;;;;;;;;;;28.20;68.00;;;;;;4986584;28;19957;-80
2022/07/28 14:26:03;;;;;;;;;;;28.10;68.20;;;;;;4994226;28;20178;-82
2022/07/28 14:28:31;;;;;;;;;;;28.20;68.40;;;;;;4984639;28;19957;-81
2022/07/28 14:30:58;;;;;;;;;;;28.30;67.50;;;;;;5020285;28;19926;-84
2022/07/28 14:33:26;;;;;;;;;;;28.20;67.30;;;;;;5000142;28;19930;-82
2022/07/28 14:35:54;;;;;;;;;;;28.30;68.30;;;;;;5000135;28;20433;-81
2022/07/28 14:38:20;;;;;;;;;;;28.40;68.50;;;;;;5001792;28;19929;-80
2022/07/28 14:40:49;;;;;;;;;;;28.50;68.00;;;;;;4996918;28;19929;-87
2022/07/28 14:43:16;;;;;;;;;;;28.30;66.90;;;;;;5002611;28;20305;-81
2022/07/28 14:45:43;;;;;;;;;;;28.30;67.30;;;;;;5017404;28;19956;-82
2022/07/28 14:48:10;;;;;;;;;;;28.10;67.50;;;;;;4992905;28;20024;-82
2022/07/28 14:50:38;;;;;;;;;;;27.90;68.20;;;;;;5001966;28;19929;-81
2022/07/28 14:53:05;;;;;;;;;;;27.80;68.80;;;;;;5005778;28;19926;-80
2022/07/28 14:55:32;;;;;;;;;;;27.80;68.40;;;;;;4994135;28;19933;-86